Time;durP1;ratioP1;P1;durP2;ratioP2;P2;SDS_P1;SDS_P2;PMS_P1;PMS_P2;Temp;Humidity;BMP_temperature;BMP_pressure;BME280_temperature;BME280_humidity;BME280_pressure;Samples;Min_cycle;Max_cycle;Signal;HPM_P1;HPM_P2
2024/01/25 00:00:14;;;;;;;53.40;9.75;;;6.20;91.50;;;;;;5094568;28;20040;-48
2024/01/25 00:02:41;;;;;;;43.55;8.60;;;6.20;91.50;;;;;;5093523;28;20036;-49
2024/01/25 00:05:08;;;;;;;55.92;10.43;;;6.20;91.50;;;;;;5094261;28;20186;-47
2024/01/25 00:07:34;;;;;;;52.78;9.60;;;6.10;91.50;;;;;;5094215;28;20111;-50
2024/01/25 00:10:07;;;;;;;53.55;11.27;;;6.20;91.60;;;;;;5093821;28;20099;-48
2024/01/25 00:12:33;;;;;;;43.15;10.05;;;6.20;91.60;;;;;;5094068;28;20035;-47
2024/01/25 00:15:01;;;;;;;46.20;10.07;;;6.10;91.60;;;;;;5094232;28;20464;-48
2024/01/25 00:17:29;;;;;;;44.88;10.40;;;6.20;91.70;;;;;;5094065;28;20463;-48
2024/01/25 00:19:55;;;;;;;49.92;9.88;;;6.20;91.60;;;;;;5093227;28;20059;-50
2024/01/25 00:22:20;;;;;;;42.95;7.60;;;6.20;91.60;;;;;;5093695;28;20081;-47
2024/01/25 00:24:47;;;;;;;50.42;9.73;;;6.20;91.70;;;;;;5093699;28;20024;-49
2024/01/25 00:27:15;;;;;;;50.90;9.95;;;6.20;91.70;;;;;;5093778;28;20017;-50
2024/01/25 00:29:41;;;;;;;54.25;9.43;;;6.20;91.70;;;;;;5093287;28;20039;-48
2024/01/25 00:32:08;;;;;;;45.78;8.57;;;6.20;91.70;;;;;;5093328;28;20027;-49
2024/01/25 00:34:35;;;;;;;39.38;10.15;;;6.20;91.70;;;;;;5093759;28;20444;-47
2024/01/25 00:37:01;;;;;;;55.55;10.93;;;6.20;91.70;;;;;;5093009;28;20028;-47
2024/01/25 00:39:27;;;;;;;42.80;10.45;;;6.20;91.80;;;;;;5093672;28;20088;-49
2024/01/25 00:42:04;;;;;;;52.35;9.68;;;6.20;91.90;;;;;;5093884;28;20047;-48
2024/01/25 00:44:29;;;;;;;35.00;11.23;;;6.20;91.90;;;;;;5074373;28;20472;-48
2024/01/25 00:46:56;;;;;;;47.67;13.10;;;6.20;91.90;;;;;;5093219;28;20028;-47
2024/01/25 00:49:26;;;;;;;42.83;8.80;;;6.10;91.90;;;;;;5093406;28;20035;-48
2024/01/25 00:52:00;;;;;;;56.70;10.15;;;6.20;92.00;;;;;;5093062;28;20042;-47
2024/01/25 00:54:26;;;;;;;47.17;10.23;;;6.10;92.00;;;;;;5074874;28;20040;-48
2024/01/25 00:56:55;;;;;;;44.63;8.50;;;6.20;92.00;;;;;;5092562;28;20032;-50
2024/01/25 00:59:21;;;;;;;52.83;10.40;;;6.10;92.00;;;;;;5075647;28;20119;-49
2024/01/25 01:01:52;;;;;;;46.53;8.50;;;6.10;92.10;;;;;;5092585;28;20043;-49
2024/01/25 01:04:20;;;;;;;50.75;11.40;;;6.10;92.10;;;;;;5092608;28;20028;-50
2024/01/25 01:06:52;;;;;;;47.85;7.72;;;6.10;92.10;;;;;;5092891;28;20085;-48
2024/01/25 01:09:18;;;;;;;42.63;12.35;;;6.00;92.20;;;;;;5093212;28;20107;-51
2024/01/25 01:11:45;;;;;;;53.72;10.02;;;6.10;92.20;;;;;;5092986;28;20110;-47
2024/01/25 01:14:12;;;;;;;44.30;8.98;;;6.10;92.30;;;;;;5092123;28;20462;-48
2024/01/25 01:16:39;;;;;;;42.92;10.73;;;6.10;92.20;;;;;;5074495;28;20444;-52
2024/01/25 01:19:09;;;;;;;48.97;10.30;;;6.00;92.20;;;;;;5093308;28;20459;-47
2024/01/25 01:21:36;;;;;;;51.88;9.45;;;6.00;92.30;;;;;;5092620;28;20055;-47
2024/01/25 01:24:02;;;;;;;46.20;9.23;;;6.00;92.30;;;;;;5092113;28;20039;-50
2024/01/25 01:26:29;;;;;;;49.70;10.93;;;6.00;92.40;;;;;;5092358;28;20028;-47
2024/01/25 01:28:55;;;;;;;44.13;9.55;;;5.90;92.50;;;;;;5092381;28;20016;-47
2024/01/25 01:31:24;;;;;;;42.47;10.32;;;5.90;92.60;;;;;;5092584;28;20463;-50
2024/01/25 01:33:51;;;;;;;70.18;11.80;;;5.90;92.60;;;;;;5092026;28;20314;-51
2024/01/25 01:36:18;;;;;;;41.15;9.45;;;5.90;92.60;;;;;;5092554;28;20449;-49
2024/01/25 01:38:45;;;;;;;55.92;11.60;;;5.90;92.60;;;;;;5092762;28;20498;-48
2024/01/25 01:41:15;;;;;;;50.15;11.52;;;5.90;92.80;;;;;;5092114;28;20085;-47
2024/01/25 01:43:41;;;;;;;46.08;10.07;;;5.90;92.80;;;;;;5091741;28;20189;-47
2024/01/25 01:46:32;;;;;;;53.35;9.77;;;5.90;92.70;;;;;;5092301;28;20024;-47
2024/01/25 01:48:59;;;;;;;51.83;8.70;;;5.90;92.70;;;;;;5092029;28;20480;-47
2024/01/25 01:51:26;;;;;;;48.45;9.95;;;5.90;92.80;;;;;;5074347;28;20024;-48
2024/01/25 01:53:56;;;;;;;50.03;11.35;;;5.90;92.90;;;;;;5092416;28;20032;-49
2024/01/25 01:56:28;;;;;;;42.45;9.50;;;5.80;92.80;;;;;;5092253;28;20458;-50
2024/01/25 01:58:59;;;;;;;41.35;9.43;;;5.80;92.90;;;;;;5091686;28;20024;-47
2024/01/25 02:01:26;;;;;;;43.28;8.63;;;5.80;93.00;;;;;;5074227;28;20444;-47
2024/01/25 02:03:53;;;;;;;45.78;8.90;;;5.70;93.00;;;;;;5091481;28;20056;-48
2024/01/25 02:06:20;;;;;;;41.03;7.90;;;5.70;93.10;;;;;;5091667;28;20035;-47
2024/01/25 02:08:48;;;;;;;37.30;11.32;;;5.70;93.10;;;;;;5091575;28;20157;-47
2024/01/25 02:11:15;;;;;;;51.88;8.63;;;5.70;93.40;;;;;;5091987;28;20020;-48
2024/01/25 02:13:42;;;;;;;49.92;11.07;;;5.80;93.40;;;;;;5091833;28;20055;-46
2024/01/25 02:16:11;;;;;;;39.95;9.50;;;5.80;93.40;;;;;;5092252;28;20051;-49
2024/01/25 02:18:39;;;;;;;37.85;10.52;;;5.80;93.30;;;;;;5091406;28;20067;-47
2024/01/25 02:21:07;;;;;;;62.15;10.32;;;5.80;93.30;;;;;;5091889;28;20058;-47
2024/01/25 02:23:36;;;;;;;38.75;8.30;;;5.80;93.30;;;;;;5091988;28;20055;-49
2024/01/25 02:26:06;;;;;;;55.15;10.98;;;5.80;93.30;;;;;;5091136;28;20457;-47
2024/01/25 02:28:34;;;;;;;48.20;11.55;;;5.70;93.30;;;;;;5091818;28;20029;-48
2024/01/25 02:31:01;;;;;;;67.60;11.82;;;5.70;93.20;;;;;;5091491;28;20032;-49
2024/01/25 02:33:28;;;;;;;41.65;7.57;;;5.70;93.30;;;;;;5091612;28;20040;-47
2024/01/25 02:35:54;;;;;;;59.17;10.80;;;5.70;93.40;;;;;;5091430;28;20408;-50
2024/01/25 02:38:24;;;;;;;51.70;9.15;;;5.70;93.40;;;;;;5091299;28;20024;-46
2024/01/25 02:40:53;;;;;;;43.88;8.85;;;5.70;93.40;;;;;;5091727;28;20035;-49
2024/01/25 02:43:22;;;;;;;37.03;7.50;;;5.70;93.50;;;;;;5091658;28;20116;-51
2024/01/25 02:45:49;;;;;;;44.83;9.10;;;5.70;93.50;;;;;;5091514;28;20396;-49
2024/01/25 02:48:16;;;;;;;52.53;11.13;;;5.70;93.50;;;;;;5090947;28;20028;-48
2024/01/25 02:50:43;;;;;;;54.33;10.13;;;5.70;93.60;;;;;;5091280;28;20028;-46
2024/01/25 02:53:09;;;;;;;48.05;9.32;;;5.70;93.60;;;;;;5090657;28;20031;-46
2024/01/25 02:55:36;;;;;;;44.28;10.23;;;5.70;93.70;;;;;;5076741;28;20024;-46
2024/01/25 02:58:04;;;;;;;53.70;10.23;;;5.70;93.60;;;;;;5095122;28;20024;-48
2024/01/25 03:00:29;;;;;;;50.63;13.15;;;5.70;93.60;;;;;;5095202;28;20024;-46
2024/01/25 03:02:56;;;;;;;64.03;10.40;;;5.70;93.70;;;;;;5094655;28;20047;-46
2024/01/25 03:05:23;;;;;;;63.78;11.45;;;5.70;93.70;;;;;;5095064;28;20026;-48
2024/01/25 03:07:50;;;;;;;55.00;10.55;;;5.70;93.80;;;;;;5094821;28;20028;-46
2024/01/25 03:10:17;;;;;;;42.15;8.50;;;5.70;93.70;;;;;;5095334;28;20035;-47
2024/01/25 03:12:44;;;;;;;58.33;9.68;;;5.70;93.70;;;;;;5094833;28;20031;-47
2024/01/25 03:15:11;;;;;;;46.70;11.02;;;5.70;93.70;;;;;;5095290;28;20030;-46
2024/01/25 03:17:38;;;;;;;50.38;11.43;;;5.70;93.80;;;;;;5094813;28;20032;-48
2024/01/25 03:20:07;;;;;;;57.28;10.60;;;5.70;93.80;;;;;;5095307;28;20069;-46
2024/01/25 03:22:32;;;;;;;39.65;7.35;;;5.60;93.70;;;;;;5094381;28;20036;-51
2024/01/25 03:25:00;;;;;;;47.53;8.98;;;5.60;93.70;;;;;;5095040;28;20103;-49
2024/01/25 03:27:26;;;;;;;55.75;9.48;;;5.60;93.70;;;;;;5076571;28;20035;-48
2024/01/25 03:29:52;;;;;;;50.42;8.43;;;5.60;93.80;;;;;;5094876;28;20161;-47
2024/01/25 03:32:19;;;;;;;51.20;9.43;;;5.60;93.80;;;;;;5094930;28;20109;-46
2024/01/25 03:34:46;;;;;;;52.00;10.13;;;5.60;93.90;;;;;;5076801;28;20045;-48
2024/01/25 03:37:15;;;;;;;48.03;9.35;;;5.60;94.00;;;;;;5094857;28;20030;-46
2024/01/25 03:39:42;;;;;;;48.35;8.70;;;5.60;94.10;;;;;;5094798;28;20055;-46
2024/01/25 03:42:10;;;;;;;43.95;8.77;;;5.60;94.00;;;;;;5094212;28;20039;-47
2024/01/25 03:44:37;;;;;;;44.85;8.52;;;5.60;94.00;;;;;;5094826;28;20035;-47
2024/01/25 03:47:03;;;;;;;53.40;9.55;;;5.60;94.00;;;;;;5095023;28;20440;-49
2024/01/25 03:49:29;;;;;;;54.60;10.60;;;5.60;94.00;;;;;;5094280;28;20024;-47
2024/01/25 03:51:55;;;;;;;50.45;8.88;;;5.60;94.00;;;;;;5094527;28;20024;-48
2024/01/25 03:54:22;;;;;;;50.00;8.93;;;5.60;94.00;;;;;;5093576;28;20085;-45
2024/01/25 03:56:49;;;;;;;44.95;8.23;;;5.60;94.00;;;;;;5094454;28;20042;-46
2024/01/25 03:59:19;;;;;;;52.17;9.75;;;5.50;94.00;;;;;;5094486;28;20024;-46
2024/01/25 04:01:49;;;;;;;46.10;9.65;;;5.50;94.00;;;;;;5093883;28;20032;-48
2024/01/25 04:04:15;;;;;;;50.47;8.93;;;5.50;94.00;;;;;;5094190;28;20035;-46
2024/01/25 04:06:43;;;;;;;42.65;8.15;;;5.50;94.10;;;;;;5092699;28;20111;-46
2024/01/25 04:09:09;;;;;;;52.70;11.32;;;5.50;94.10;;;;;;5094384;28;20028;-46
2024/01/25 04:11:38;;;;;;;51.50;11.90;;;5.50;94.10;;;;;;5093595;28;20142;-47
2024/01/25 04:14:05;;;;;;;45.07;9.13;;;5.50;94.10;;;;;;5094271;28;20077;-46
2024/01/25 04:16:34;;;;;;;50.67;9.15;;;5.50;94.20;;;;;;5094325;28;20050;-46
2024/01/25 04:19:03;;;;;;;41.22;7.70;;;5.50;94.10;;;;;;5075106;28;20032;-46
2024/01/25 04:21:33;;;;;;;60.60;10.67;;;5.50;94.20;;;;;;5093776;28;20058;-45
2024/01/25 04:23:59;;;;;;;45.58;9.55;;;5.50;94.30;;;;;;5093631;28;20020;-46
2024/01/25 04:26:33;;;;;;;41.95;7.93;;;5.50;94.30;;;;;;5093798;28;20089;-47
2024/01/25 04:29:00;;;;;;;53.28;9.07;;;5.50;94.20;;;;;;5093599;28;20032;-45
2024/01/25 04:31:26;;;;;;;48.55;9.80;;;5.50;94.20;;;;;;5093533;28;20345;-47
2024/01/25 04:33:53;;;;;;;57.50;9.88;;;5.40;94.20;;;;;;5076069;28;20028;-47
2024/01/25 04:36:19;;;;;;;51.58;10.15;;;5.40;94.20;;;;;;5092984;28;20089;-46
2024/01/25 04:38:46;;;;;;;41.97;8.27;;;5.40;94.20;;;;;;5075927;28;20093;-48
2024/01/25 04:41:13;;;;;;;35.13;7.13;;;5.40;94.40;;;;;;5093116;28;20024;-47
2024/01/25 04:43:40;;;;;;;43.90;8.20;;;5.50;94.40;;;;;;5093036;28;20154;-45
2024/01/25 04:46:09;;;;;;;48.15;9.27;;;5.40;94.30;;;;;;5092603;28;20075;-46
2024/01/25 04:48:39;;;;;;;41.13;8.10;;;5.40;94.30;;;;;;5093589;28;20024;-45
2024/01/25 04:51:06;;;;;;;41.85;7.35;;;5.40;94.30;;;;;;5093368;28;20440;-48
2024/01/25 04:53:32;;;;;;;41.63;8.55;;;5.30;94.20;;;;;;5093604;28;20162;-45
2024/01/25 04:56:00;;;;;;;39.28;7.97;;;5.30;94.20;;;;;;5092908;28;20028;-45
2024/01/25 04:58:27;;;;;;;49.42;8.38;;;5.20;94.20;;;;;;5093337;28;20460;-46
2024/01/25 05:00:53;;;;;;;34.67;7.45;;;5.20;94.20;;;;;;5093303;28;20028;-47
2024/01/25 05:03:20;;;;;;;42.22;8.15;;;5.20;94.20;;;;;;5092526;28;20463;-47
2024/01/25 05:05:48;;;;;;;43.05;7.95;;;5.10;94.20;;;;;;5093271;28;20025;-46
2024/01/25 05:08:15;;;;;;;33.42;6.70;;;5.10;94.20;;;;;;5093066;28;20107;-46
2024/01/25 05:10:41;;;;;;;47.45;7.35;;;5.10;94.30;;;;;;5092653;28;20032;-45
2024/01/25 05:13:09;;;;;;;41.90;7.85;;;5.10;94.30;;;;;;5092971;28;20020;-45
2024/01/25 05:15:36;;;;;;;50.30;8.55;;;5.10;94.40;;;;;;5092353;28;20349;-45
2024/01/25 05:18:04;;;;;;;37.75;7.18;;;5.00;94.30;;;;;;5093010;28;20100;-47
2024/01/25 05:20:37;;;;;;;42.78;8.80;;;5.00;94.40;;;;;;5092045;28;20375;-47
2024/01/25 05:23:04;;;;;;;46.83;9.70;;;5.00;94.30;;;;;;5092488;28;20024;-45
2024/01/25 05:25:31;;;;;;;38.38;7.75;;;5.00;94.40;;;;;;5092939;28;20040;-44
2024/01/25 05:27:59;;;;;;;36.85;8.25;;;5.00;94.40;;;;;;5092413;28;20047;-46
2024/01/25 05:30:26;;;;;;;42.42;8.70;;;4.90;94.40;;;;;;5092675;28;20024;-46
2024/01/25 05:32:55;;;;;;;54.28;11.85;;;5.00;94.50;;;;;;5070911;28;20411;-47
2024/01/25 05:35:25;;;;;;;52.10;8.95;;;4.90;94.50;;;;;;5072337;28;20090;-47
2024/01/25 05:37:51;;;;;;;47.80;7.75;;;4.90;94.50;;;;;;5067633;28;20071;-45
2024/01/25 05:40:19;;;;;;;32.95;8.93;;;4.90;94.60;;;;;;5072330;28;20060;-48
2024/01/25 05:42:46;;;;;;;47.75;8.10;;;4.90;94.70;;;;;;5088206;28;20032;-45
2024/01/25 05:45:13;;;;;;;44.85;7.35;;;4.90;94.80;;;;;;5092468;28;20093;-48
2024/01/25 05:47:39;;;;;;;46.78;8.40;;;4.90;94.80;;;;;;5092559;28;20034;-44
2024/01/25 05:50:06;;;;;;;38.50;9.50;;;4.90;94.90;;;;;;5092013;28;20019;-47
2024/01/25 05:52:33;;;;;;;45.50;9.90;;;5.00;94.90;;;;;;5092386;28;20040;-44
2024/01/25 05:55:00;;;;;;;51.58;9.43;;;4.90;94.90;;;;;;5092777;28;20103;-45
2024/01/25 05:57:27;;;;;;;46.28;9.25;;;4.90;94.90;;;;;;5091622;28;20055;-44
2024/01/25 05:59:54;;;;;;;52.47;8.45;;;5.00;94.90;;;;;;5092485;28;20099;-45
2024/01/25 06:02:20;;;;;;;42.67;7.72;;;5.00;95.00;;;;;;5091719;28;20056;-43
2024/01/25 06:04:50;;;;;;;52.20;8.05;;;5.00;95.00;;;;;;5091918;28;20074;-44
2024/01/25 06:07:15;;;;;;;45.63;9.20;;;5.00;95.00;;;;;;5091935;28;20024;-44
2024/01/25 06:09:41;;;;;;;40.58;9.75;;;4.90;95.00;;;;;;5092322;28;20399;-44
2024/01/25 06:12:08;;;;;;;37.65;6.38;;;4.90;94.90;;;;;;5091544;28;20039;-45
2024/01/25 06:14:36;;;;;;;46.63;8.38;;;4.90;95.00;;;;;;5074135;28;20105;-45
2024/01/25 06:17:03;;;;;;;41.60;7.60;;;4.90;95.00;;;;;;5091406;28;20030;-49
2024/01/25 06:19:30;;;;;;;50.20;8.70;;;4.90;95.00;;;;;;5070752;28;20402;-45
2024/01/25 06:22:01;;;;;;;35.00;9.00;;;4.90;95.00;;;;;;5071398;28;20060;-44
2024/01/25 06:24:29;;;;;;;47.55;8.07;;;4.90;95.00;;;;;;5085272;28;20317;-44
2024/01/25 06:26:58;;;;;;;39.55;7.47;;;4.90;95.10;;;;;;5091678;28;20020;-43
2024/01/25 06:29:28;;;;;;;55.72;8.77;;;4.90;95.10;;;;;;5091316;28;20024;-47
2024/01/25 06:31:56;;;;;;;53.08;9.93;;;4.90;95.00;;;;;;5091001;28;20411;-44
2024/01/25 06:34:21;;;;;;;38.03;7.20;;;4.90;95.10;;;;;;5090990;28;20036;-46
2024/01/25 06:36:48;;;;;;;41.33;7.47;;;4.90;95.10;;;;;;5091099;28;20031;-44
2024/01/25 06:39:14;;;;;;;36.55;6.97;;;4.80;95.10;;;;;;5090978;28;20330;-44
2024/01/25 06:41:41;;;;;;;42.13;8.88;;;4.80;95.10;;;;;;5091265;28;20027;-49
2024/01/25 06:44:09;;;;;;;41.72;7.57;;;4.90;95.20;;;;;;5090954;28;20123;-45
2024/01/25 06:46:36;;;;;;;47.08;9.27;;;4.80;95.10;;;;;;5091150;28;20016;-45
2024/01/25 06:49:02;;;;;;;47.05;9.65;;;4.90;95.20;;;;;;5091753;28;20027;-44
2024/01/25 06:51:29;;;;;;;34.05;7.45;;;4.80;95.10;;;;;;5091751;28;20016;-48
2024/01/25 06:53:57;;;;;;;29.45;8.18;;;4.80;95.20;;;;;;5091269;28;20452;-44
2024/01/25 06:56:23;;;;;;;47.05;8.82;;;4.70;95.10;;;;;;5091616;28;20043;-45
2024/01/25 06:58:50;;;;;;;36.60;8.15;;;4.80;95.10;;;;;;5091166;28;20024;-45
2024/01/25 07:01:23;;;;;;;44.67;7.78;;;4.70;95.20;;;;;;5091585;28;20103;-44
2024/01/25 07:03:50;;;;;;;42.92;7.25;;;4.70;95.10;;;;;;5091370;28;20031;-46
2024/01/25 07:06:18;;;;;;;33.47;7.10;;;4.70;95.20;;;;;;5091000;28;20329;-44
2024/01/25 07:08:45;;;;;;;38.22;7.20;;;4.70;95.20;;;;;;5091019;28;20016;-48
2024/01/25 07:11:14;;;;;;;42.22;8.35;;;4.70;95.20;;;;;;5090846;28;20024;-47
2024/01/25 07:13:41;;;;;;;40.50;8.17;;;4.70;95.20;;;;;;5091615;28;20035;-45
2024/01/25 07:16:08;;;;;;;44.38;9.07;;;4.70;95.20;;;;;;5091497;28;20052;-46
2024/01/25 07:18:35;;;;;;;51.80;9.35;;;4.70;95.40;;;;;;5071938;28;20452;-44
2024/01/25 07:21:04;;;;;;;43.08;7.85;;;4.80;95.30;;;;;;5091341;28;20064;-44
2024/01/25 07:23:30;;;;;;;40.55;8.80;;;4.70;95.30;;;;;;5091371;28;20027;-44
2024/01/25 07:25:57;;;;;;;41.97;8.07;;;4.70;95.40;;;;;;5088975;28;20034;-46
2024/01/25 07:28:25;;;;;;;61.78;11.55;;;4.80;95.40;;;;;;5071077;28;20063;-45
2024/01/25 07:30:53;;;;;;;49.80;8.60;;;4.80;95.40;;;;;;5071163;28;20020;-45
2024/01/25 07:33:22;;;;;;;47.65;9.48;;;4.70;95.30;;;;;;5071176;28;20067;-48
2024/01/25 07:35:49;;;;;;;47.40;10.43;;;4.80;95.40;;;;;;5045292;28;20077;-47
2024/01/25 07:38:15;;;;;;;42.15;8.55;;;4.70;95.30;;;;;;5051017;28;20485;-45
2024/01/25 07:40:42;;;;;;;45.80;8.13;;;4.80;95.40;;;;;;5070007;28;20032;-45
2024/01/25 07:43:08;;;;;;;31.60;7.95;;;4.70;95.30;;;;;;5056719;28;20031;-46
2024/01/25 07:45:34;;;;;;;44.75;9.18;;;4.70;95.40;;;;;;5074697;28;20028;-45
2024/01/25 07:48:01;;;;;;;41.03;7.45;;;4.70;95.30;;;;;;5075892;28;20131;-47
2024/01/25 07:50:29;;;;;;;33.92;7.28;;;4.70;95.30;;;;;;5094660;28;20020;-44
2024/01/25 07:52:56;;;;;;;44.35;7.53;;;4.80;95.40;;;;;;5084590;28;20052;-45
2024/01/25 07:55:21;;;;;;;44.78;7.47;;;4.70;95.40;;;;;;5074482;28;20112;-45
2024/01/25 07:57:48;;;;;;;35.60;8.30;;;4.80;95.40;;;;;;5074117;28;20108;-46
2024/01/25 08:00:14;;;;;;;42.83;8.70;;;4.80;95.40;;;;;;5083884;28;20036;-45
2024/01/25 08:02:44;;;;;;;40.83;8.43;;;4.80;95.40;;;;;;5094348;28;20029;-45
2024/01/25 08:05:12;;;;;;;42.67;8.38;;;4.80;95.40;;;;;;5092890;28;20024;-47
2024/01/25 08:07:37;;;;;;;34.22;7.28;;;4.80;95.40;;;;;;5094493;28;20017;-47
2024/01/25 08:10:08;;;;;;;48.55;7.68;;;4.80;95.40;;;;;;5094637;28;20034;-46
2024/01/25 08:12:35;;;;;;;39.10;6.90;;;4.80;95.40;;;;;;5074175;28;20045;-46
2024/01/25 08:15:03;;;;;;;46.08;9.27;;;4.90;95.40;;;;;;5074168;28;20781;-46
2024/01/25 08:17:30;;;;;;;40.65;7.93;;;4.80;95.40;;;;;;5094246;28;20463;-45
2024/01/25 08:19:56;;;;;;;35.13;6.93;;;4.90;95.40;;;;;;5094340;28;20067;-49
2024/01/25 08:22:24;;;;;;;38.13;7.88;;;4.90;95.30;;;;;;5093409;28;20140;-49
2024/01/25 08:24:53;;;;;;;41.10;7.95;;;4.90;95.30;;;;;;5076488;28;20020;-44
2024/01/25 08:27:20;;;;;;;33.85;8.07;;;4.90;95.20;;;;;;5093870;28;20028;-45
2024/01/25 08:29:46;;;;;;;37.17;8.50;;;4.90;95.20;;;;;;5094156;28;20062;-45
2024/01/25 08:32:12;;;;;;;25.38;6.68;;;4.90;95.20;;;;;;5093634;28;20123;-45
2024/01/25 08:34:43;;;;;;;38.85;7.40;;;5.00;95.20;;;;;;5075742;28;20032;-46
2024/01/25 08:37:08;;;;;;;28.27;7.47;;;5.10;95.30;;;;;;5094033;28;20035;-46
2024/01/25 08:39:34;;;;;;;29.98;6.13;;;5.10;95.20;;;;;;5093408;28;20425;-47
2024/01/25 08:42:03;;;;;;;38.10;7.15;;;5.10;95.20;;;;;;5075992;28;20036;-46
2024/01/25 08:44:30;;;;;;;32.33;7.72;;;5.20;95.10;;;;;;5093925;28;20657;-46
2024/01/25 08:46:57;;;;;;;32.70;8.25;;;5.20;95.10;;;;;;5093465;28;20377;-48
2024/01/25 08:49:26;;;;;;;46.03;9.73;;;5.30;95.10;;;;;;5074456;28;20049;-44
2024/01/25 08:51:53;;;;;;;41.00;8.63;;;5.30;95.10;;;;;;5093421;28;20032;-47
2024/01/25 08:54:20;;;;;;;39.28;8.38;;;5.40;95.00;;;;;;5075786;28;20047;-45
2024/01/25 08:56:47;;;;;;;39.25;9.52;;;5.50;95.10;;;;;;5075467;28;20093;-45
2024/01/25 08:59:14;;;;;;;38.45;8.40;;;5.50;95.10;;;;;;5092815;28;20063;-45
2024/01/25 09:01:41;;;;;;;38.33;7.68;;;5.70;95.10;;;;;;5093090;28;20342;-45
2024/01/25 09:04:08;;;;;;;51.05;10.32;;;5.70;95.10;;;;;;5075620;28;20452;-46
2024/01/25 09:06:34;;;;;;;53.83;16.30;;;5.80;95.10;;;;;;5075344;28;20024;-45
2024/01/25 09:09:00;;;;;;;43.30;11.45;;;5.90;95.00;;;;;;5092737;28;20030;-49
2024/01/25 09:11:27;;;;;;;37.63;10.02;;;5.90;95.00;;;;;;5093378;28;20028;-45
2024/01/25 09:13:53;;;;;;;44.80;9.30;;;6.00;94.80;;;;;;5075211;28;20551;-47
2024/01/25 09:16:20;;;;;;;48.08;10.32;;;6.00;94.70;;;;;;5092516;28;20055;-45
2024/01/25 09:18:46;;;;;;;47.13;10.38;;;6.10;94.80;;;;;;5093257;28;20632;-47
2024/01/25 09:21:14;;;;;;;33.25;8.57;;;6.20;94.70;;;;;;5092453;28;20181;-44
2024/01/25 09:23:45;;;;;;;42.95;8.85;;;6.20;94.60;;;;;;5092945;28;20039;-46
2024/01/25 09:26:12;;;;;;;37.90;9.27;;;6.40;94.60;;;;;;5092727;28;20441;-44
2024/01/25 09:28:39;;;;;;;38.67;7.32;;;6.40;94.60;;;;;;5092365;28;20042;-48
2024/01/25 09:31:05;;;;;;;40.90;8.90;;;6.60;94.50;;;;;;5074466;28;20025;-46
2024/01/25 09:33:33;;;;;;;40.63;7.63;;;6.70;94.30;;;;;;5093002;28;20384;-46
2024/01/25 09:35:59;;;;;;;45.97;9.02;;;6.70;94.20;;;;;;5092630;28;20024;-46
2024/01/25 09:38:26;;;;;;;37.17;8.50;;;6.80;94.10;;;;;;5092053;28;20456;-48
2024/01/25 09:40:52;;;;;;;32.78;7.30;;;6.80;94.00;;;;;;5092836;28;20138;-46
2024/01/25 09:43:19;;;;;;;47.45;9.45;;;6.90;94.00;;;;;;5092793;28;20019;-49
2024/01/25 09:45:56;;;;;;;41.78;7.25;;;6.90;93.70;;;;;;5092550;28;20429;-45
2024/01/25 09:48:23;;;;;;;43.85;7.85;;;6.90;93.70;;;;;;5091952;28;20473;-48
2024/01/25 09:50:50;;;;;;;40.42;8.18;;;7.00;93.70;;;;;;5092505;28;20121;-45
2024/01/25 09:53:22;;;;;;;39.03;8.85;;;7.20;93.80;;;;;;5092509;28;20024;-47
2024/01/25 09:56:05;;;;;;;31.80;8.25;;;7.30;93.70;;;;;;5092176;28;20536;-46
2024/01/25 09:58:43;;;;;;;39.85;9.98;;;7.30;93.20;;;;;;5074380;28;20028;-47
2024/01/25 10:01:12;;;;;;;33.95;7.60;;;7.40;92.90;;;;;;5092016;28;20039;-46
2024/01/25 10:03:42;;;;;;;36.95;7.70;;;7.40;92.80;;;;;;5091782;28;20032;-46
2024/01/25 10:06:08;;;;;;;49.60;10.65;;;7.40;92.80;;;;;;5091804;28;20032;-46
2024/01/25 10:08:37;;;;;;;39.20;9.13;;;7.40;92.60;;;;;;5092288;28;20023;-47
2024/01/25 10:11:05;;;;;;;38.95;8.80;;;7.50;92.60;;;;;;5092160;28;20337;-48
2024/01/25 10:13:32;;;;;;;32.85;6.90;;;7.60;92.60;;;;;;5091641;28;20042;-46
2024/01/25 10:15:59;;;;;;;46.63;8.93;;;7.50;92.30;;;;;;5092029;28;20043;-47
2024/01/25 10:18:28;;;;;;;38.15;8.35;;;7.40;92.30;;;;;;5092124;28;20434;-48
2024/01/25 10:20:55;;;;;;;;;;;7.40;92.30;;;;;;5073436;28;20044;-47
2024/01/25 10:23:25;;;;;;;42.40;8.75;;;7.40;92.30;;;;;;5091967;28;19940;-46
2024/01/25 10:25:52;;;;;;;43.83;7.53;;;7.40;92.40;;;;;;5091371;28;20052;-46
2024/01/25 10:28:22;;;;;;;36.83;8.52;;;7.50;92.50;;;;;;5091912;28;20024;-47
2024/01/25 10:30:48;;;;;;;29.15;7.35;;;7.40;92.30;;;;;;5091070;28;20419;-48
2024/01/25 10:33:16;;;;;;;30.45;6.10;;;7.40;92.30;;;;;;5073625;28;20427;-46
2024/01/25 10:35:45;;;;;;;45.45;8.85;;;7.40;92.20;;;;;;5091293;28;20119;-48
2024/01/25 10:38:15;;;;;;;41.77;6.33;;;7.40;92.00;;;;;;5090999;28;20041;-46
2024/01/25 10:40:43;;;;;;;27.33;6.97;;;7.40;92.10;;;;;;5090826;28;20486;-46
2024/01/25 10:43:10;;;;;;;34.08;8.73;;;7.40;91.90;;;;;;5091238;28;20024;-45
2024/01/25 10:45:39;;;;;;;34.47;6.90;;;7.30;91.90;;;;;;5073290;28;20466;-48
2024/01/25 10:48:07;;;;;;;36.85;7.40;;;7.30;91.80;;;;;;5091266;28;20052;-46
2024/01/25 10:50:33;;;;;;;32.42;7.68;;;7.30;92.00;;;;;;5090929;28;20445;-47
2024/01/25 10:53:02;;;;;;;34.30;7.35;;;7.20;91.60;;;;;;5091538;28;20115;-48
2024/01/25 10:55:31;;;;;;;33.38;7.93;;;7.20;91.70;;;;;;5091510;28;20024;-48
2024/01/25 10:57:58;;;;;;;25.63;6.60;;;7.10;91.70;;;;;;5073537;28;20441;-46
2024/01/25 11:00:27;;;;;;;30.75;7.53;;;7.10;91.80;;;;;;5091344;28;20500;-50
2024/01/25 11:02:55;;;;;;;37.15;6.07;;;7.20;91.80;;;;;;5091434;28;20028;-46
2024/01/25 11:05:23;;;;;;;38.25;8.43;;;7.20;91.90;;;;;;5090973;28;20029;-46
2024/01/25 11:07:50;;;;;;;32.60;7.25;;;7.30;92.00;;;;;;5091407;28;20070;-46
2024/01/25 11:10:35;;;;;;;42.47;6.50;;;7.30;92.00;;;;;;5092009;28;20024;-46
2024/01/25 11:13:03;;;;;;;30.38;6.63;;;7.40;92.00;;;;;;5091038;28;20032;-48
2024/01/25 11:15:48;;;;;;;31.63;6.70;;;7.40;92.00;;;;;;5092886;28;20141;-47
2024/01/25 11:18:24;;;;;;;24.05;6.32;;;7.50;91.80;;;;;;5094870;28;20047;-48
2024/01/25 11:20:51;;;;;;;25.45;6.90;;;7.60;91.90;;;;;;5095092;28;20036;-49
2024/01/25 11:23:17;;;;;;;35.28;7.68;;;7.70;91.80;;;;;;5095332;28;20127;-49
2024/01/25 11:25:47;;;;;;;30.17;6.93;;;7.70;91.70;;;;;;5094403;28;20123;-47
2024/01/25 11:28:19;;;;;;;33.85;7.07;;;7.80;91.60;;;;;;5095192;28;20024;-50
2024/01/25 11:30:47;;;;;;;31.83;7.57;;;8.00;91.60;;;;;;5095419;28;20336;-47
2024/01/25 11:33:14;;;;;;;38.20;7.65;;;8.10;91.20;;;;;;5094747;28;20020;-47
2024/01/25 11:35:42;;;;;;;33.50;6.63;;;8.10;90.90;;;;;;5094949;28;20024;-47
2024/01/25 11:38:09;;;;;;;27.00;7.65;;;8.10;90.60;;;;;;5077104;28;20027;-48
2024/01/25 11:40:36;;;;;;;29.33;8.25;;;8.00;90.20;;;;;;5095048;28;20017;-49
2024/01/25 11:43:10;;;;;;;28.35;6.78;;;8.10;90.40;;;;;;5094413;28;20036;-49
2024/01/25 11:45:42;;;;;;;27.30;6.57;;;8.20;90.40;;;;;;5094782;28;20073;-49
2024/01/25 11:48:09;;;;;;;22.67;5.25;;;8.30;89.90;;;;;;5094837;28;20107;-49
2024/01/25 11:50:39;;;;;;;26.63;6.57;;;8.30;89.80;;;;;;5094357;28;20056;-49
2024/01/25 11:53:05;;;;;;;31.13;6.00;;;8.40;89.70;;;;;;5094860;28;20037;-47
2024/01/25 11:55:31;;;;;;;32.10;9.20;;;8.40;89.10;;;;;;5094692;28;20112;-51
2024/01/25 11:57:58;;;;;;;30.92;6.22;;;8.40;88.90;;;;;;5094146;28;20102;-50
2024/01/25 12:00:25;;;;;;;31.58;7.28;;;8.40;89.10;;;;;;5094794;28;20059;-50
2024/01/25 12:02:53;;;;;;;38.58;8.18;;;8.40;89.10;;;;;;5076103;28;20074;-52
2024/01/25 12:05:20;;;;;;;26.05;6.35;;;8.40;88.80;;;;;;5094567;28;20059;-51
2024/01/25 12:07:46;;;;;;;32.97;7.03;;;8.40;88.70;;;;;;5094604;28;20126;-50
2024/01/25 12:10:16;;;;;;;32.00;7.10;;;8.30;88.60;;;;;;5093852;28;20048;-50
2024/01/25 12:12:43;;;;;;;28.30;6.18;;;8.20;88.70;;;;;;5076895;28;20028;-48
2024/01/25 12:15:12;;;;;;;24.38;6.78;;;8.20;88.90;;;;;;5094307;28;20369;-49
2024/01/25 12:17:40;;;;;;;32.08;7.35;;;8.20;89.20;;;;;;5093593;28;20051;-48
2024/01/25 12:20:10;;;;;;;27.10;5.90;;;8.20;89.30;;;;;;5094252;28;20047;-50
2024/01/25 12:22:37;;;;;;;32.85;6.25;;;8.20;89.20;;;;;;5093775;28;20110;-49
2024/01/25 12:25:10;;;;;;;20.70;6.00;;;8.20;89.50;;;;;;5076298;28;20031;-50
2024/01/25 12:27:41;;;;;;;30.42;6.10;;;8.30;89.10;;;;;;5075969;28;20028;-51
2024/01/25 12:30:11;;;;;;;25.45;6.70;;;8.20;88.70;;;;;;5093418;28;20024;-49
2024/01/25 12:32:36;;;;;;;25.77;5.72;;;8.10;88.20;;;;;;5094168;28;20044;-48
2024/01/25 12:35:06;;;;;;;28.58;7.60;;;8.10;88.30;;;;;;5093779;28;20048;-49
2024/01/25 12:37:33;;;;;;;27.90;6.22;;;8.00;88.30;;;;;;5093745;28;20369;-50
2024/01/25 12:39:59;;;;;;;29.58;7.13;;;7.90;88.10;;;;;;5093357;28;20039;-50
2024/01/25 12:42:25;;;;;;;31.65;6.57;;;7.90;88.50;;;;;;5093880;28;20028;-51
2024/01/25 12:44:54;;;;;;;36.20;6.43;;;7.90;88.90;;;;;;5093762;28;20024;-50
2024/01/25 12:47:21;;;;;;;27.45;6.38;;;7.80;88.60;;;;;;5075587;28;20039;-50